SPGM

Details ICAO SPGM
Name Tingo Maria
Region Peru
Timezone America/Lima (UTC-5.0)
Plans Departing 1
Arriving 0
Stats Elevation 2,008 ft / 612 m (AMSL)
Location -9.289722° -76.004723°
Runways 1
Magnetic Variation 3.376° W
Sunrise 2017-12-14 10:40:24 UTC / 2017-12-14 05:40:24 Local
Sunset 2017-12-14 23:19:59 UTC / 2017-12-14 18:19:59 Local
Advertisement - Login to hide

Runways

ID Width Length Bearing (true) Bearing (mag) Surface Threshold Offset Overrun Length
18 98 ft / 30 m 6,895 ft / 2,101 m 180.00° 183.38° Concrete 0 ft / 0 m 0 ft / 0 m
36 98 ft / 30 m 6,895 ft / 2,101 m 0.00° 3.38° Concrete 0 ft / 0 m 0 ft / 0 m

Map

Weather


0- 5 10 15 20 25 30 35+ Temperature / ° C

Clouds and Precipitation
Forecast for 2017-12-14 18:00 UTC. Updated 2 hours ago

Ground ~20,000 ft ~40,000 ft Winds

METAR

SPGM 141700Z 02004KT 9999 FEW040 30/21 Q1013 RMK BIRD HAZARD RWY19 PP000

TAF

Not found
Warning: Do not use this data for real-world aviation or navigation. No guarantee of current accuracy is given.